Time;durP1;ratioP1;P1;durP2;ratioP2;P2;SDS_P1;SDS_P2;PMS_P1;PMS_P2;Temp;Humidity;BMP_temperature;BMP_pressure;BME280_temperature;BME280_humidity;BME280_pressure;Samples;Min_cycle;Max_cycle;Signal;HPM_P1;HPM_P2
2024/04/26 00:00:21;;;;;;;;;;;;;;;19.76;57.52;100547.84;106912;1267;22519;-56
2024/04/26 00:02:48;;;;;;;;;;;;;;;19.77;57.41;100553.76;107041;1257;25331;-56
2024/04/26 00:05:15;;;;;;;;;;;;;;;19.78;57.33;100559.33;107059;1269;25316;-56
2024/04/26 00:07:42;;;;;;;;;;;;;;;19.78;57.25;100561.77;107147;1264;25315;-55
2024/04/26 00:10:09;;;;;;;;;;;;;;;19.78;57.29;100571.27;107094;1254;25380;-57
2024/04/26 00:12:37;;;;;;;;;;;;;;;19.78;57.27;100577.94;107179;1255;25305;-56
2024/04/26 00:15:04;;;;;;;;;;;;;;;19.75;57.36;100572.37;107053;1264;25482;-56
2024/04/26 00:17:31;;;;;;;;;;;;;;;19.70;57.38;100572.53;107199;1254;25324;-56
2024/04/26 00:19:58;;;;;;;;;;;;;;;19.65;57.36;100578.05;106705;1263;551736;-56
2024/04/26 00:22:25;;;;;;;;;;;;;;;19.63;57.45;100580.84;107148;1254;25388;-56
2024/04/26 00:24:52;;;;;;;;;;;;;;;19.63;57.44;100577.14;107234;1255;25334;-56
2024/04/26 00:27:19;;;;;;;;;;;;;;;19.63;57.47;100577.48;107134;1257;25414;-56
2024/04/26 00:29:47;;;;;;;;;;;;;;;19.63;57.46;100576.80;107135;1257;25343;-56
2024/04/26 00:32:15;;;;;;;;;;;;;;;19.64;57.47;100574.66;107067;1250;25385;-55
2024/04/26 00:34:42;;;;;;;;;;;;;;;19.60;57.55;100576.62;107191;1261;25334;-55
2024/04/26 00:37:09;;;;;;;;;;;;;;;19.61;57.58;100589.45;106846;1267;24687;-55
2024/04/26 00:39:36;;;;;;;;;;;;;;;19.63;57.50;100590.89;107176;1254;25356;-56
2024/04/26 00:42:04;;;;;;;;;;;;;;;19.63;57.39;100584.70;106905;1257;24262;-55
2024/04/26 00:44:31;;;;;;;;;;;;;;;19.63;57.34;100578.91;107108;1254;25365;-55
2024/04/26 00:46:58;;;;;;;;;;;;;;;19.62;57.32;100586.03;107085;1256;25326;-56
2024/04/26 00:49:25;;;;;;;;;;;;;;;19.62;57.41;100593.96;107023;1256;25343;-56
2024/04/26 00:51:52;;;;;;;;;;;;;;;19.62;57.34;100595.48;106847;1267;25352;-56
2024/04/26 00:54:22;;;;;;;;;;;;;;;19.62;57.28;100590.92;106831;1267;23283;-56
2024/04/26 00:56:54;;;;;;;;;;;;;;;19.63;57.40;100590.91;106772;1259;25469;-56
2024/04/26 00:59:21;;;;;;;;;;;;;;;19.63;57.33;100589.31;107057;1252;24270;-56
2024/04/26 01:01:48;;;;;;;;;;;;;;;19.63;57.31;100591.92;106916;1273;25325;-56
2024/04/26 01:04:15;;;;;;;;;;;;;;;19.59;57.31;100600.13;107197;1254;25315;-56
2024/04/26 01:06:42;;;;;;;;;;;;;;;19.55;57.41;100595.66;107125;1250;25465;-55
2024/04/26 01:09:09;;;;;;;;;;;;;;;19.52;57.62;100597.17;106861;1259;24219;-55
2024/04/26 01:11:36;;;;;;;;;;;;;;;19.52;57.54;100602.80;107170;1257;22758;-55
2024/04/26 01:14:03;;;;;;;;;;;;;;;19.53;57.59;100599.25;107201;1257;25352;-55
2024/04/26 01:16:30;;;;;;;;;;;;;;;19.51;57.53;100599.20;107155;1254;25340;-55
2024/04/26 01:18:57;;;;;;;;;;;;;;;19.46;57.60;100599.64;107106;1257;25433;-55
2024/04/26 01:21:24;;;;;;;;;;;;;;;19.45;57.72;100609.75;107202;1251;25325;-55
2024/04/26 01:23:51;;;;;;;;;;;;;;;19.45;57.65;100610.95;106836;1260;25334;-56
2024/04/26 01:26:18;;;;;;;;;;;;;;;19.46;57.58;100611.27;106878;1256;25309;-56
2024/04/26 01:28:45;;;;;;;;;;;;;;;19.45;57.67;100618.66;106879;1258;25328;-56
2024/04/26 01:31:12;;;;;;;;;;;;;;;19.45;57.74;100627.12;107075;1264;25404;-56
2024/04/26 01:33:39;;;;;;;;;;;;;;;19.45;57.71;100621.30;107172;1263;25383;-56
2024/04/26 01:36:06;;;;;;;;;;;;;;;19.47;57.62;100624.20;107112;1251;25395;-56
2024/04/26 01:38:33;;;;;;;;;;;;;;;19.47;57.53;100629.65;107076;1257;25328;-56
2024/04/26 01:41:00;;;;;;;;;;;;;;;19.47;57.44;100624.54;107155;1254;25315;-56
2024/04/26 01:43:27;;;;;;;;;;;;;;;19.47;57.43;100626.30;107055;1251;25335;-56
2024/04/26 01:45:54;;;;;;;;;;;;;;;19.47;57.34;100634.27;107135;1254;22647;-56
2024/04/26 01:48:21;;;;;;;;;;;;;;;19.47;57.34;100635.11;107064;1253;26710;-56
2024/04/26 01:50:48;;;;;;;;;;;;;;;19.47;57.28;100634.42;107128;1259;25322;-55
2024/04/26 01:53:15;;;;;;;;;;;;;;;19.46;57.22;100649.45;107220;1254;25392;-55
2024/04/26 01:55:42;;;;;;;;;;;;;;;19.45;57.10;100648.77;107144;1263;25317;-56
2024/04/26 01:58:09;;;;;;;;;;;;;;;19.45;57.10;100655.13;107236;1250;23987;-56
2024/04/26 02:00:36;;;;;;;;;;;;;;;19.44;57.09;100652.73;107135;1254;25401;-56
2024/04/26 02:03:03;;;;;;;;;;;;;;;19.44;57.10;100651.69;107074;1263;25319;-56
2024/04/26 02:05:30;;;;;;;;;;;;;;;19.43;57.07;100640.81;107148;1253;25388;-55
2024/04/26 02:07:57;;;;;;;;;;;;;;;19.42;57.10;100638.92;107108;1257;25315;-55
2024/04/26 02:10:24;;;;;;;;;;;;;;;19.42;57.14;100642.27;107134;1250;25331;-55
2024/04/26 02:12:51;;;;;;;;;;;;;;;19.42;57.20;100649.84;107055;1254;25359;-56
2024/04/26 02:15:18;;;;;;;;;;;;;;;19.41;57.18;100657.83;107097;1256;25456;-55
2024/04/26 02:17:45;;;;;;;;;;;;;;;19.40;57.15;100668.26;107151;1254;25359;-55
2024/04/26 02:20:12;;;;;;;;;;;;;;;19.38;57.26;100666.27;107103;1251;25464;-55
2024/04/26 02:22:40;;;;;;;;;;;;;;;19.37;57.24;100669.84;107185;1256;25335;-55
2024/04/26 02:25:06;;;;;;;;;;;;;;;19.37;57.27;100670.04;107130;1254;25352;-55
2024/04/26 02:27:33;;;;;;;;;;;;;;;19.35;57.32;100663.13;107056;1264;25335;-55
2024/04/26 02:30:01;;;;;;;;;;;;;;;19.34;57.35;100669.54;107305;1264;25382;-56
2024/04/26 02:32:28;;;;;;;;;;;;;;;19.33;57.33;100672.90;107156;1254;22512;-55
2024/04/26 02:34:55;;;;;;;;;;;;;;;19.29;57.34;100671.34;107118;1251;25337;-55
2024/04/26 02:37:22;;;;;;;;;;;;;;;19.25;57.39;100674.23;107131;1264;25346;-55
2024/04/26 02:39:49;;;;;;;;;;;;;;;19.24;57.46;100674.30;107210;1250;22513;-55
2024/04/26 02:42:15;;;;;;;;;;;;;;;19.23;57.47;100672.92;107109;1256;25315;-55
2024/04/26 02:44:42;;;;;;;;;;;;;;;19.24;57.49;100683.29;107077;1254;25392;-56
2024/04/26 02:47:10;;;;;;;;;;;;;;;19.23;57.56;100686.65;106895;1260;25548;-56
2024/04/26 02:49:37;;;;;;;;;;;;;;;19.22;57.68;100682.50;107165;1259;25346;-56
2024/04/26 02:52:04;;;;;;;;;;;;;;;19.22;57.86;100677.92;106889;1267;25861;-56
2024/04/26 02:54:31;;;;;;;;;;;;;;;19.22;57.84;100678.64;107144;1256;25335;-56
2024/04/26 02:56:59;;;;;;;;;;;;;;;19.21;57.93;100684.00;107122;1264;23286;-56
2024/04/26 02:59:26;;;;;;;;;;;;;;;19.17;58.00;100680.34;107215;1250;25201;-56
2024/04/26 03:01:53;;;;;;;;;;;;;;;19.13;58.08;100684.42;106345;1254;1002966;-55
2024/04/26 03:04:20;;;;;;;;;;;;;;;19.07;58.28;100692.35;107096;1254;25325;-55
2024/04/26 03:06:47;;;;;;;;;;;;;;;19.05;58.49;100689.32;107117;1254;25335;-55
2024/04/26 03:09:14;;;;;;;;;;;;;;;19.02;58.60;100690.38;107035;1255;25385;-56
2024/04/26 03:11:41;;;;;;;;;;;;;;;18.95;58.76;100694.48;107120;1254;25322;-55
2024/04/26 03:14:08;;;;;;;;;;;;;;;18.87;59.05;100696.34;107116;1253;22500;-56
2024/04/26 03:16:38;;;;;;;;;;;;;;;18.83;59.34;100703.40;107174;1254;25465;-56
2024/04/26 03:19:05;;;;;;;;;;;;;;;18.84;59.54;100704.23;107142;1263;25373;-56
2024/04/26 03:21:33;;;;;;;;;;;;;;;18.84;59.61;100709.67;107070;1263;25274;-56
2024/04/26 03:24:00;;;;;;;;;;;;;;;18.84;59.87;100710.05;106905;1257;24032;-55
2024/04/26 03:26:27;;;;;;;;;;;;;;;18.85;59.89;100714.73;107133;1251;25439;-55
2024/04/26 03:28:54;;;;;;;;;;;;;;;18.88;59.93;100715.26;107194;1254;25385;-55
2024/04/26 03:31:21;;;;;;;;;;;;;;;18.93;59.92;100710.76;107139;1266;25378;-55
2024/04/26 03:33:49;;;;;;;;;;;;;;;18.97;59.79;100711.40;107178;1250;25396;-55
2024/04/26 03:36:28;;;;;;;;;;;;;;;18.99;59.84;100717.95;106858;1266;25334;-56
2024/04/26 03:39:08;;;;;;;;;;;;;;;19.04;59.83;100733.33;106941;1259;25469;-56
2024/04/26 03:41:36;;;;;;;;;;;;;;;19.08;59.79;100738.89;107125;1266;24354;-56
2024/04/26 03:44:03;;;;;;;;;;;;;;;19.13;59.70;100743.72;106359;1270;1003669;-56
2024/04/26 03:46:31;;;;;;;;;;;;;;;19.17;59.57;100740.98;107203;1266;25284;-56
2024/04/26 03:48:58;;;;;;;;;;;;;;;19.21;59.54;100739.18;106814;1269;23847;-56
2024/04/26 03:51:25;;;;;;;;;;;;;;;19.25;59.37;100735.27;107137;1266;25379;-56
2024/04/26 03:53:52;;;;;;;;;;;;;;;19.28;59.35;100735.23;107086;1266;25335;-56
2024/04/26 03:56:20;;;;;;;;;;;;;;;19.33;59.23;100731.66;107024;1267;25536;-56
2024/04/26 03:58:47;;;;;;;;;;;;;;;19.36;59.16;100726.53;107101;1266;24460;-56
2024/04/26 04:01:14;;;;;;;;;;;;;;;19.40;59.17;100725.10;107057;1266;25405;-56
2024/04/26 04:03:42;;;;;;;;;;;;;;;19.43;59.08;100721.23;107175;1267;25427;-56
2024/04/26 04:06:09;;;;;;;;;;;;;;;19.45;58.93;100719.14;106853;1273;25343;-56
2024/04/26 04:08:37;;;;;;;;;;;;;;;19.47;58.92;100718.17;106388;1266;1003110;-56
2024/04/26 04:11:04;;;;;;;;;;;;;;;19.48;58.83;100716.84;107146;1266;25391;-56
2024/04/26 04:13:31;;;;;;;;;;;;;;;19.50;59.05;100722.20;107074;1270;23887;-55
2024/04/26 04:15:58;;;;;;;;;;;;;;;19.53;58.97;100721.70;107183;1267;25401;-55
2024/04/26 04:18:27;;;;;;;;;;;;;;;19.55;58.97;100719.29;107148;1270;25417;-56
2024/04/26 04:20:54;;;;;;;;;;;;;;;19.58;58.91;100721.56;107144;1267;25318;-56
2024/04/26 04:23:22;;;;;;;;;;;;;;;19.62;59.09;100719.95;107144;1266;25455;-56
2024/04/26 04:25:49;;;;;;;;;;;;;;;19.65;58.99;100720.42;106887;1269;25343;-56
2024/04/26 04:28:17;;;;;;;;;;;;;;;19.70;58.97;100727.91;107116;1266;25346;-55
2024/04/26 04:30:44;;;;;;;;;;;;;;;19.74;58.78;100739.83;107161;1266;25387;-55
2024/04/26 04:33:13;;;;;;;;;;;;;;;19.77;58.78;100741.91;107142;1266;25391;-56
2024/04/26 04:35:40;;;;;;;;;;;;;;;19.80;58.65;100744.69;107231;1266;24585;-56
2024/04/26 04:38:07;;;;;;;;;;;;;;;19.84;58.63;100750.10;107038;1266;22617;-56
2024/04/26 04:40:35;;;;;;;;;;;;;;;19.87;58.60;100762.94;107087;1267;25353;-56
2024/04/26 04:46:19;;;;;;;;;;;;;;;20.00;58.70;100758.29;103750;1291;544893;-55
2024/04/26 04:48:47;;;;;;;;;;;;;;;20.03;58.77;100759.69;106080;1280;24230;-55
2024/04/26 04:51:14;;;;;;;;;;;;;;;20.08;58.84;100754.59;106789;1269;22510;-55
2024/04/26 04:53:42;;;;;;;;;;;;;;;20.13;58.73;100759.03;106831;1272;23274;-56
2024/04/26 04:56:10;;;;;;;;;;;;;;;20.19;58.61;100769.29;106758;1272;22494;-55
2024/04/26 04:58:38;;;;;;;;;;;;;;;20.23;58.67;100783.67;106709;1269;25481;-55
2024/04/26 05:01:05;;;;;;;;;;;;;;;20.27;58.55;100791.84;106864;1268;280627;-56
2024/04/26 05:03:33;;;;;;;;;;;;;;;20.32;58.53;100801.75;106996;1271;22502;-56
2024/04/26 05:06:01;;;;;;;;;;;;;;;20.35;58.43;100799.27;106999;1269;25347;-55
2024/04/26 05:08:29;;;;;;;;;;;;;;;20.38;58.39;100800.13;106988;1270;22501;-56
2024/04/26 05:10:56;;;;;;;;;;;;;;;20.42;58.38;100800.64;106888;1269;22494;-56
2024/04/26 05:13:24;;;;;;;;;;;;;;;20.45;58.40;100809.23;106993;1272;22504;-56
2024/04/26 05:15:52;;;;;;;;;;;;;;;20.50;58.42;100809.65;107073;1266;22505;-56
2024/04/26 05:18:19;;;;;;;;;;;;;;;20.53;58.45;100805.94;107075;1269;24245;-55
2024/04/26 05:20:47;;;;;;;;;;;;;;;20.56;58.48;100818.77;107005;1269;23840;-55
2024/04/26 05:23:15;;;;;;;;;;;;;;;20.60;58.35;100829.44;107052;1272;25444;-57
2024/04/26 05:25:42;;;;;;;;;;;;;;;20.63;58.29;100830.46;107009;1269;24234;-56
2024/04/26 05:28:10;;;;;;;;;;;;;;;20.66;58.28;100824.85;107022;1269;22504;-56
2024/04/26 05:30:37;;;;;;;;;;;;;;;20.67;57.94;100828.66;106959;1261;22507;-56
2024/04/26 05:33:05;;;;;;;;;;;;;;;20.65;57.88;100838.32;106920;1274;23850;-55
2024/04/26 05:35:33;;;;;;;;;;;;;;;20.63;57.90;100850.23;107074;1270;24338;-56
2024/04/26 05:38:01;;;;;;;;;;;;;;;20.63;57.99;100859.08;107061;1269;25223;-55
2024/04/26 05:40:28;;;;;;;;;;;;;;;20.63;57.92;100865.55;107000;1266;22542;-55
2024/04/26 05:42:56;;;;;;;;;;;;;;;20.65;57.90;100873.23;106931;1269;24212;-55
2024/04/26 05:45:23;;;;;;;;;;;;;;;20.65;57.97;100875.48;106986;1266;25221;-56
2024/04/26 05:47:52;;;;;;;;;;;;;;;20.67;57.95;100879.44;107030;1270;25300;-55
2024/04/26 05:50:20;;;;;;;;;;;;;;;20.68;58.06;100884.29;107051;1253;22486;-56
2024/04/26 05:52:47;;;;;;;;;;;;;;;20.69;58.17;100885.77;107024;1269;25336;-56
2024/04/26 05:55:15;;;;;;;;;;;;;;;20.72;58.32;100886.69;106984;1260;24312;-55
2024/04/26 05:57:42;;;;;;;;;;;;;;;20.74;58.44;100887.41;107065;1269;25240;-56
2024/04/26 06:00:11;;;;;;;;;;;;;;;20.77;58.32;100886.73;106941;1267;25401;-55
2024/04/26 06:02:38;;;;;;;;;;;;;;;20.80;58.54;100890.79;106910;1272;25323;-56
2024/04/26 06:05:11;;;;;;;;;;;;;;;20.83;58.63;100891.45;106858;1270;25320;-56
2024/04/26 06:07:39;;;;;;;;;;;;;;;20.89;58.76;100889.34;106909;1270;24271;-57
2024/04/26 06:10:07;;;;;;;;;;;;;;;20.96;58.76;100890.64;106974;1269;25252;-56
2024/04/26 06:12:34;;;;;;;;;;;;;;;21.10;58.41;100895.07;107010;1268;22518;-56
2024/04/26 06:15:02;;;;;;;;;;;;;;;21.18;58.18;100902.88;106987;1267;22622;-56
2024/04/26 06:17:30;;;;;;;;;;;;;;;21.23;57.86;100909.42;106916;1267;25316;-57
2024/04/26 06:19:57;;;;;;;;;;;;;;;21.28;57.56;100908.57;106993;1267;24276;-56
2024/04/26 06:22:25;;;;;;;;;;;;;;;21.31;57.27;100911.60;106836;1269;25224;-56
2024/04/26 06:24:52;;;;;;;;;;;;;;;21.31;56.99;100920.42;107042;1268;25343;-56
2024/04/26 06:27:20;;;;;;;;;;;;;;;21.29;56.85;100930.75;106953;1269;25258;-56
2024/04/26 06:29:48;;;;;;;;;;;;;;;21.29;56.79;100934.84;107013;1272;25266;-56
2024/04/26 06:32:16;;;;;;;;;;;;;;;21.30;56.79;100945.70;106870;1265;22498;-55
2024/04/26 06:34:44;;;;;;;;;;;;;;;21.32;56.75;100950.52;106823;1272;22928;-55
2024/04/26 06:37:11;;;;;;;;;;;;;;;21.34;56.87;100944.58;106775;1272;25354;-55
2024/04/26 06:39:39;;;;;;;;;;;;;;;21.36;56.82;100950.43;106946;1260;25204;-55
2024/04/26 06:42:06;;;;;;;;;;;;;;;21.38;56.82;100950.64;107096;1269;25341;-56
2024/04/26 06:44:34;;;;;;;;;;;;;;;21.41;56.72;100956.30;107090;1270;22769;-56
2024/04/26 06:47:02;;;;;;;;;;;;;;;21.44;56.76;100958.04;106894;1269;22570;-56
2024/04/26 06:49:30;;;;;;;;;;;;;;;21.47;56.65;100965.62;106881;1269;22509;-55
2024/04/26 06:51:57;;;;;;;;;;;;;;;21.50;56.48;100962.96;106942;1268;24217;-56
2024/04/26 06:54:25;;;;;;;;;;;;;;;21.51;56.38;100964.48;106995;1268;24198;-56
2024/04/26 06:56:52;;;;;;;;;;;;;;;21.53;56.28;100966.48;106964;1269;22495;-55
2024/04/26 06:59:20;;;;;;;;;;;;;;;21.56;56.17;100973.34;106969;1269;23886;-56
2024/04/26 07:01:51;;;;;;;;;;;;;;;21.59;55.93;100977.20;107059;1262;25224;-56
2024/04/26 07:04:19;;;;;;;;;;;;;;;21.59;55.83;100976.28;107037;1269;25354;-56
2024/04/26 07:06:47;;;;;;;;;;;;;;;21.60;55.77;100981.86;106967;1269;25315;-57
2024/04/26 07:09:15;;;;;;;;;;;;;;;21.62;55.79;100983.69;107025;1267;24236;-56
2024/04/26 07:11:43;;;;;;;;;;;;;;;21.64;55.73;100983.35;106872;1275;22647;-56
2024/04/26 07:14:11;;;;;;;;;;;;;;;21.67;55.64;100984.05;106824;1274;23857;-56
2024/04/26 07:16:39;;;;;;;;;;;;;;;21.71;55.74;100988.94;107071;1269;25511;-56
2024/04/26 07:19:06;;;;;;;;;;;;;;;21.75;55.47;100990.98;107095;1267;22501;-57
2024/04/26 07:21:35;;;;;;;;;;;;;;;21.77;55.17;100988.75;107056;1267;22630;-56
2024/04/26 07:24:03;;;;;;;;;;;;;;;21.77;55.03;100987.86;106942;1273;26656;-56
2024/04/26 07:26:32;;;;;;;;;;;;;;;21.76;54.97;100991.95;106951;1272;22526;-56
2024/04/26 07:29:00;;;;;;;;;;;;;;;21.78;55.04;100996.79;107011;1267;23862;-56
2024/04/26 07:31:48;;;;;;;;;;;;;;;21.81;55.02;101004.70;107108;1269;22504;-55
2024/04/26 07:34:16;;;;;;;;;;;;;;;21.85;54.92;101009.79;106926;1270;24288;-56
2024/04/26 07:36:45;;;;;;;;;;;;;;;21.86;54.62;101005.12;107013;1269;24218;-56
2024/04/26 07:39:16;;;;;;;;;;;;;;;21.81;54.50;101005.58;106970;1268;22498;-56
2024/04/26 07:41:45;;;;;;;;;;;;;;;21.76;54.50;101010.34;106950;1272;23844;-56
2024/04/26 07:44:13;;;;;;;;;;;;;;;21.75;54.79;101009.20;107038;1269;22781;-56
2024/04/26 07:46:41;;;;;;;;;;;;;;;21.79;54.87;101005.15;106996;1269;22505;-56
2024/04/26 07:49:09;;;;;;;;;;;;;;;21.87;54.91;101002.95;106912;1269;25278;-55
2024/04/26 07:51:38;;;;;;;;;;;;;;;21.95;54.85;100998.55;106944;1269;22681;-55
2024/04/26 07:54:05;;;;;;;;;;;;;;;22.06;54.66;101004.69;106943;1269;24262;-55
2024/04/26 07:56:35;;;;;;;;;;;;;;;22.18;54.43;101013.92;107098;1267;24664;-56
2024/04/26 07:59:03;;;;;;;;;;;;;;;22.33;54.15;101013.98;107033;1267;25338;-56
2024/04/26 08:01:31;;;;;;;;;;;;;;;22.49;53.59;101017.92;106995;1267;22506;-57
2024/04/26 08:03:58;;;;;;;;;;;;;;;22.63;52.73;101020.65;106870;1268;23849;-56
2024/04/26 08:06:26;;;;;;;;;;;;;;;22.77;51.88;101021.52;107004;1272;25464;-56
2024/04/26 08:08:54;;;;;;;;;;;;;;;22.87;51.75;101024.70;107135;1270;22513;-57
2024/04/26 08:11:21;;;;;;;;;;;;;;;22.95;51.69;101021.55;106904;1267;24250;-55
2024/04/26 08:13:49;;;;;;;;;;;;;;;23.00;51.51;101023.95;106806;1267;23860;-56
2024/04/26 08:16:17;;;;;;;;;;;;;;;23.06;51.17;101027.49;106941;1269;25278;-56
2024/04/26 08:18:44;;;;;;;;;;;;;;;23.07;50.95;101024.55;106984;1269;25091;-55
2024/04/26 08:21:14;;;;;;;;;;;;;;;23.06;50.84;101021.58;107094;1269;22623;-56
2024/04/26 08:23:43;;;;;;;;;;;;;;;23.05;51.00;101018.14;106957;1269;22632;-55
2024/04/26 08:26:18;;;;;;;;;;;;;;;23.07;50.84;101019.95;106956;1262;23843;-56
2024/04/26 08:28:45;;;;;;;;;;;;;;;23.10;50.52;101019.77;107065;1270;22506;-55
2024/04/26 08:31:13;;;;;;;;;;;;;;;23.13;50.30;101019.52;106807;1260;23708;-56
2024/04/26 08:33:40;;;;;;;;;;;;;;;23.16;50.19;101028.71;106894;1269;25223;-55
2024/04/26 08:36:08;;;;;;;;;;;;;;;23.17;50.00;101022.97;106961;1271;22729;-55
2024/04/26 08:38:36;;;;;;;;;;;;;;;23.18;49.88;101023.21;106840;1274;25376;-55
2024/04/26 08:41:04;;;;;;;;;;;;;;;23.19;49.76;101029.34;106957;1270;24214;-55
2024/04/26 08:43:31;;;;;;;;;;;;;;;23.20;49.70;101025.95;106821;1267;22499;-56
2024/04/26 08:45:59;;;;;;;;;;;;;;;23.20;49.25;101030.37;106967;1266;25269;-56
2024/04/26 08:48:27;;;;;;;;;;;;;;;23.16;49.22;101028.19;106926;1273;22587;-56
2024/04/26 08:50:55;;;;;;;;;;;;;;;23.13;49.17;101031.77;106887;1270;22509;-56
2024/04/26 08:53:25;;;;;;;;;;;;;;;23.11;49.07;101028.36;107082;1269;23844;-56
2024/04/26 08:55:52;;;;;;;;;;;;;;;23.10;49.25;101027.13;107065;1270;22505;-56
2024/04/26 08:58:20;;;;;;;;;;;;;;;23.12;49.36;101026.67;106951;1272;22499;-55
2024/04/26 09:00:48;;;;;;;;;;;;;;;23.14;49.11;101030.09;106985;1270;25248;-56
2024/04/26 09:03:15;;;;;;;;;;;;;;;23.18;49.02;101035.13;106985;1272;22625;-56
2024/04/26 09:05:48;;;;;;;;;;;;;;;23.23;48.90;101039.14;106936;1271;23851;-56
2024/04/26 09:08:16;;;;;;;;;;;;;;;23.30;49.05;101036.40;106978;1257;22503;-57
2024/04/26 09:10:43;;;;;;;;;;;;;;;23.38;49.25;101036.02;107028;1270;22510;-56
2024/04/26 09:13:11;;;;;;;;;;;;;;;23.48;48.70;101031.39;107025;1272;23875;-56
2024/04/26 09:15:39;;;;;;;;;;;;;;;23.57;48.54;101029.48;107013;1270;22522;-56
2024/04/26 09:18:07;;;;;;;;;;;;;;;23.67;48.19;101030.39;106999;1270;25265;-57
2024/04/26 09:20:36;;;;;;;;;;;;;;;23.74;48.02;101029.86;106946;1270;22530;-56
2024/04/26 09:23:07;;;;;;;;;;;;;;;23.81;47.64;101025.61;107018;1272;23860;-56
2024/04/26 09:25:34;;;;;;;;;;;;;;;23.87;47.60;101025.18;107000;1269;24231;-56
2024/04/26 09:28:03;;;;;;;;;;;;;;;23.95;47.69;101027.44;106769;1269;22525;-57
2024/04/26 09:30:30;;;;;;;;;;;;;;;24.04;47.91;101031.73;106851;1269;24265;-56
2024/04/26 09:32:58;;;;;;;;;;;;;;;24.11;47.87;101033.33;106969;1272;24267;-57
2024/04/26 09:35:28;;;;;;;;;;;;;;;24.15;47.65;101040.84;106797;1274;23845;-56
2024/04/26 09:37:56;;;;;;;;;;;;;;;24.21;47.66;101040.57;106859;1272;22648;-56
2024/04/26 09:40:24;;;;;;;;;;;;;;;24.27;47.59;101033.57;106925;1269;25327;-56
2024/04/26 09:42:53;;;;;;;;;;;;;;;24.33;46.89;101042.60;106870;1275;22500;-56
2024/04/26 09:45:21;;;;;;;;;;;;;;;24.29;46.57;101040.04;107029;1267;22504;-56
2024/04/26 09:47:51;;;;;;;;;;;;;;;24.23;46.49;101041.48;107086;1269;23895;-56
2024/04/26 09:50:19;;;;;;;;;;;;;;;24.16;46.46;101046.30;106948;1269;24176;-56
2024/04/26 09:52:49;;;;;;;;;;;;;;;24.13;47.05;101051.43;106914;1275;22633;-55
2024/04/26 09:55:18;;;;;;;;;;;;;;;24.18;47.16;101053.18;106931;1270;24263;-55
2024/04/26 09:57:47;;;;;;;;;;;;;;;24.27;47.08;101053.13;107122;1272;22509;-56
2024/04/26 10:00:15;;;;;;;;;;;;;;;24.31;46.47;101052.80;106890;1274;25274;-56
2024/04/26 10:02:43;;;;;;;;;;;;;;;24.28;46.64;101051.95;106949;1275;24393;-56
2024/04/26 10:05:18;;;;;;;;;;;;;;;24.29;46.49;101052.47;107018;1272;25321;-56
2024/04/26 10:07:59;;;;;;;;;;;;;;;24.31;46.28;101056.35;106877;1273;22627;-56
2024/04/26 10:10:27;;;;;;;;;;;;;;;24.16;46.69;101060.08;106867;1272;22505;-56
2024/04/26 10:13:04;;;;;;;;;;;;;;;24.01;46.93;101059.58;107025;1267;25363;-56
2024/04/26 10:15:34;;;;;;;;;;;;;;;23.87;46.97;101058.85;107128;1267;22802;-57
2024/04/26 10:18:02;;;;;;;;;;;;;;;23.71;46.84;101059.33;106929;1275;22521;-57
2024/04/26 10:20:43;;;;;;;;;;;;;;;23.53;47.09;101059.54;106829;1272;22491;-56
2024/04/26 10:23:12;;;;;;;;;;;;;;;23.43;47.50;101057.98;107039;1270;22498;-56
2024/04/26 10:25:40;;;;;;;;;;;;;;;23.36;47.69;101060.70;106958;1269;24075;-57
2024/04/26 10:28:14;;;;;;;;;;;;;;;23.29;48.30;101057.82;106832;1273;22503;-56
2024/04/26 10:30:43;;;;;;;;;;;;;;;23.29;48.85;101057.15;107048;1268;24640;-56
2024/04/26 10:33:11;;;;;;;;;;;;;;;23.35;48.92;101061.36;106925;1270;22511;-56
2024/04/26 10:35:38;;;;;;;;;;;;;;;23.38;48.69;101056.34;107119;1271;23878;-56
2024/04/26 10:38:06;;;;;;;;;;;;;;;23.38;48.13;101049.27;106893;1269;22529;-56
2024/04/26 10:40:47;;;;;;;;;;;;;;;23.36;48.43;101055.13;106978;1267;22511;-56
2024/04/26 10:43:22;;;;;;;;;;;;;;;23.35;48.48;101060.30;106818;1269;25758;-57
2024/04/26 10:45:50;;;;;;;;;;;;;;;23.35;48.45;101068.25;106987;1270;24225;-56
2024/04/26 10:48:18;;;;;;;;;;;;;;;23.36;48.33;101071.91;106801;1269;25308;-56
2024/04/26 10:50:46;;;;;;;;;;;;;;;23.37;48.13;101077.54;106960;1269;23878;-56
2024/04/26 10:53:13;;;;;;;;;;;;;;;23.38;48.62;101081.88;106964;1267;23851;-57
2024/04/26 10:55:41;;;;;;;;;;;;;;;23.41;48.45;101079.20;107045;1273;26488;-56
2024/04/26 10:58:10;;;;;;;;;;;;;;;23.42;48.48;101078.95;106910;1270;25116;-56
2024/04/26 11:00:38;;;;;;;;;;;;;;;23.42;48.58;101082.14;106939;1269;25351;-57
2024/04/26 11:03:07;;;;;;;;;;;;;;;23.42;48.72;101079.27;106826;1275;22509;-56
2024/04/26 11:05:42;;;;;;;;;;;;;;;23.40;48.44;101082.06;106924;1270;24175;-56
2024/04/26 11:08:10;;;;;;;;;;;;;;;23.42;48.59;101085.85;106900;1270;25861;-56
2024/04/26 11:10:39;;;;;;;;;;;;;;;23.47;48.32;101085.49;106791;1267;25334;-56
2024/04/26 11:13:07;;;;;;;;;;;;;;;23.49;47.99;101093.11;106890;1268;25315;-56
2024/04/26 11:15:36;;;;;;;;;;;;;;;23.48;48.17;101095.48;107026;1271;22497;-56
2024/04/26 11:18:04;;;;;;;;;;;;;;;23.51;47.94;101086.64;106907;1275;22526;-56
2024/04/26 11:20:32;;;;;;;;;;;;;;;23.50;48.19;101080.86;107103;1272;22498;-56
2024/04/26 11:23:00;;;;;;;;;;;;;;;23.48;48.05;101078.13;106945;1270;23845;-56
2024/04/26 11:25:27;;;;;;;;;;;;;;;23.47;48.39;101070.79;107035;1270;24271;-56
2024/04/26 11:27:55;;;;;;;;;;;;;;;23.49;48.44;101069.56;106940;1271;22557;-56
2024/04/26 11:30:22;;;;;;;;;;;;;;;23.54;48.11;101071.01;106864;1268;26481;-57
2024/04/26 11:32:50;;;;;;;;;;;;;;;23.57;47.97;101074.83;106902;1270;25277;-57
2024/04/26 11:35:18;;;;;;;;;;;;;;;23.59;47.98;101080.59;106902;1269;22642;-56
2024/04/26 11:37:45;;;;;;;;;;;;;;;23.60;47.95;101079.95;106966;1267;25324;-56
2024/04/26 11:40:13;;;;;;;;;;;;;;;23.62;47.85;101084.21;106779;1276;25401;-56
2024/04/26 11:42:40;;;;;;;;;;;;;;;23.60;47.94;101083.33;106991;1270;25265;-56
2024/04/26 11:45:08;;;;;;;;;;;;;;;23.57;47.99;101079.80;106999;1269;22488;-56
2024/04/26 11:47:36;;;;;;;;;;;;;;;23.53;47.82;101080.27;107044;1275;22512;-56
2024/04/26 11:50:05;;;;;;;;;;;;;;;23.49;47.89;101083.58;107030;1267;22507;-56
2024/04/26 11:52:33;;;;;;;;;;;;;;;23.41;47.78;101081.30;106895;1270;22509;-58
2024/04/26 11:55:00;;;;;;;;;;;;;;;23.34;47.92;101081.81;106922;1273;25268;-55
2024/04/26 11:57:28;;;;;;;;;;;;;;;23.27;48.01;101081.89;106838;1271;22509;-56
2024/04/26 11:59:55;;;;;;;;;;;;;;;23.23;48.52;101086.80;106939;1271;22628;-56
2024/04/26 12:02:23;;;;;;;;;;;;;;;23.23;48.38;101079.86;106892;1268;24242;-58
2024/04/26 12:04:51;;;;;;;;;;;;;;;23.23;48.33;101084.47;106978;1255;22620;-56
2024/04/26 12:07:19;;;;;;;;;;;;;;;23.24;48.40;101087.45;106956;1254;23401;-57
2024/04/26 12:09:46;;;;;;;;;;;;;;;23.23;48.27;101090.33;106937;1267;22557;-56
2024/04/26 12:12:14;;;;;;;;;;;;;;;23.21;48.20;101094.20;106916;1267;22499;-56
2024/04/26 12:14:42;;;;;;;;;;;;;;;23.19;48.58;101094.69;106915;1270;22533;-57
2024/04/26 12:17:09;;;;;;;;;;;;;;;23.19;48.25;101095.76;106974;1267;24378;-56
2024/04/26 12:19:37;;;;;;;;;;;;;;;23.14;48.19;101094.88;107131;1267;24484;-56
2024/04/26 12:22:04;;;;;;;;;;;;;;;23.02;48.09;101094.64;106872;1273;25346;-56
2024/04/26 12:24:32;;;;;;;;;;;;;;;22.89;48.24;101098.65;106825;1270;25234;-56
2024/04/26 12:27:04;;;;;;;;;;;;;;;22.78;48.63;101104.23;106842;1270;25329;-56
2024/04/26 12:29:32;;;;;;;;;;;;;;;22.74;48.65;101107.00;106922;1270;22642;-56
2024/04/26 12:31:59;;;;;;;;;;;;;;;22.73;48.90;101112.89;106916;1255;22507;-56